sensor_id;sensor_type;location;lat;lon;timestamp;P1;P2;P0
50587;PMS7003;70782;50.514;30.816;2023-07-13T00:00:27;8.90;8.90;7.40
50587;PMS7003;70782;50.514;30.816;2023-07-13T00:01:30;8.91;7.09;4.55
50587;PMS7003;70782;50.514;30.816;2023-07-13T00:02:33;10.90;10.10;7.40
50587;PMS7003;70782;50.514;30.816;2023-07-13T00:03:36;10.10;10.00;8.80
50587;PMS7003;70782;50.514;30.816;2023-07-13T00:04:38;10.60;8.90;7.50
50587;PMS7003;70782;50.514;30.816;2023-07-13T00:05:40;11.60;10.10;8.50
50587;PMS7003;70782;50.514;30.816;2023-07-13T00:06:43;9.80;9.30;7.40
50587;PMS7003;70782;50.514;30.816;2023-07-13T00:07:46;10.90;10.60;8.50
50587;PMS7003;70782;50.514;30.816;2023-07-13T00:08:48;9.70;9.70;7.80
50587;PMS7003;70782;50.514;30.816;2023-07-13T00:11:06;10.00;10.00;7.80
50587;PMS7003;70782;50.514;30.816;2023-07-13T00:12:24;11.90;11.30;9.40
50587;PMS7003;70782;50.514;30.816;2023-07-13T00:13:54;11.80;10.80;8.60
50587;PMS7003;70782;50.514;30.816;2023-07-13T00:14:57;9.10;9.10;7.70
50587;PMS7003;70782;50.514;30.816;2023-07-13T00:16:00;8.90;8.90;7.80
50587;PMS7003;70782;50.514;30.816;2023-07-13T00:17:03;11.50;10.70;8.20
50587;PMS7003;70782;50.514;30.816;2023-07-13T00:18:05;10.09;9.18;7.55
50587;PMS7003;70782;50.514;30.816;2023-07-13T00:19:07;11.50;10.50;9.00
50587;PMS7003;70782;50.514;30.816;2023-07-13T00:20:10;11.00;9.30;8.20
50587;PMS7003;70782;50.514;30.816;2023-07-13T00:21:13;9.50;9.50;8.20
50587;PMS7003;70782;50.514;30.816;2023-07-13T00:22:15;11.10;9.80;7.70
50587;PMS7003;70782;50.514;30.816;2023-07-13T00:23:18;10.90;10.90;8.80
50587;PMS7003;70782;50.514;30.816;2023-07-13T00:24:20;11.20;10.00;7.70
50587;PMS7003;70782;50.514;30.816;2023-07-13T00:25:22;10.10;9.60;7.30
50587;PMS7003;70782;50.514;30.816;2023-07-13T00:26:25;10.91;9.73;7.45
50587;PMS7003;70782;50.514;30.816;2023-07-13T00:27:27;11.40;10.60;9.00
50587;PMS7003;70782;50.514;30.816;2023-07-13T00:28:29;12.10;11.30;9.00
50587;PMS7003;70782;50.514;30.816;2023-07-13T00:29:31;8.70;8.70;7.30
50587;PMS7003;70782;50.514;30.816;2023-07-13T00:30:34;8.10;7.60;6.40
50587;PMS7003;70782;50.514;30.816;2023-07-13T00:31:36;8.90;8.80;7.40
50587;PMS7003;70782;50.514;30.816;2023-07-13T00:32:39;8.90;8.30;6.50
50587;PMS7003;70782;50.514;30.816;2023-07-13T00:33:41;8.60;8.30;6.60
50587;PMS7003;70782;50.514;30.816;2023-07-13T00:34:44;9.45;7.55;6.09
50587;PMS7003;70782;50.514;30.816;2023-07-13T00:35:46;8.50;8.10;6.20
50587;PMS7003;70782;50.514;30.816;2023-07-13T00:36:48;8.00;7.40;6.10
50587;PMS7003;70782;50.514;30.816;2023-07-13T00:37:50;10.20;9.20;7.80
50587;PMS7003;70782;50.514;30.816;2023-07-13T00:38:53;8.10;8.10;7.20
50587;PMS7003;70782;50.514;30.816;2023-07-13T00:39:55;9.00;7.70;6.40
50587;PMS7003;70782;50.514;30.816;2023-07-13T00:40:57;8.30;7.90;6.70
50587;PMS7003;70782;50.514;30.816;2023-07-13T00:42:00;9.60;8.60;6.90
50587;PMS7003;70782;50.514;30.816;2023-07-13T00:43:04;8.40;8.40;7.20
50587;PMS7003;70782;50.514;30.816;2023-07-13T00:44:18;8.20;7.30;4.90
50587;PMS7003;70782;50.514;30.816;2023-07-13T00:46:29;7.80;7.20;6.20
50587;PMS7003;70782;50.514;30.816;2023-07-13T00:47:33;9.00;8.50;7.20
50587;PMS7003;70782;50.514;30.816;2023-07-13T00:48:35;11.10;9.60;7.50
50587;PMS7003;70782;50.514;30.816;2023-07-13T00:49:39;6.80;6.80;6.50
50587;PMS7003;70782;50.514;30.816;2023-07-13T00:50:41;7.80;7.80;6.70
50587;PMS7003;70782;50.514;30.816;2023-07-13T00:51:49;7.70;7.70;5.40
50587;PMS7003;70782;50.514;30.816;2023-07-13T00:52:54;7.20;6.70;5.70
50587;PMS7003;70782;50.514;30.816;2023-07-13T00:53:58;8.00;7.00;5.90
50587;PMS7003;70782;50.514;30.816;2023-07-13T00:55:01;8.00;8.00;6.70
50587;PMS7003;70782;50.514;30.816;2023-07-13T00:56:04;8.10;8.10;6.80
50587;PMS7003;70782;50.514;30.816;2023-07-13T00:57:08;9.20;7.80;6.70
50587;PMS7003;70782;50.514;30.816;2023-07-13T00:58:13;8.50;8.20;6.70
50587;PMS7003;70782;50.514;30.816;2023-07-13T00:59:16;8.30;8.30;7.10
50587;PMS7003;70782;50.514;30.816;2023-07-13T01:00:21;7.40;7.40;5.80
50587;PMS7003;70782;50.514;30.816;2023-07-13T01:01:24;8.60;8.60;7.00
50587;PMS7003;70782;50.514;30.816;2023-07-13T01:02:27;7.90;7.70;5.90
50587;PMS7003;70782;50.514;30.816;2023-07-13T01:03:31;9.00;6.70;5.70
50587;PMS7003;70782;50.514;30.816;2023-07-13T01:04:33;8.50;7.80;6.10
50587;PMS7003;70782;50.514;30.816;2023-07-13T01:05:35;10.10;9.50;6.90
50587;PMS7003;70782;50.514;30.816;2023-07-13T01:06:37;8.50;8.50;7.10
50587;PMS7003;70782;50.514;30.816;2023-07-13T01:07:42;9.80;8.30;6.60
50587;PMS7003;70782;50.514;30.816;2023-07-13T01:08:45;9.70;7.90;6.50
50587;PMS7003;70782;50.514;30.816;2023-07-13T01:09:47;9.20;8.00;6.70
50587;PMS7003;70782;50.514;30.816;2023-07-13T01:10:50;8.40;7.90;5.60
50587;PMS7003;70782;50.514;30.816;2023-07-13T01:11:54;7.90;7.90;6.60
50587;PMS7003;70782;50.514;30.816;2023-07-13T01:12:56;7.90;7.90;6.70
50587;PMS7003;70782;50.514;30.816;2023-07-13T01:13:59;8.09;7.91;6.00
50587;PMS7003;70782;50.514;30.816;2023-07-13T01:15:01;8.10;7.80;6.10
50587;PMS7003;70782;50.514;30.816;2023-07-13T01:16:10;8.30;7.30;6.40
50587;PMS7003;70782;50.514;30.816;2023-07-13T01:18:28;7.10;7.10;5.80
50587;PMS7003;70782;50.514;30.816;2023-07-13T01:19:35;7.00;6.00;5.50
50587;PMS7003;70782;50.514;30.816;2023-07-13T01:20:50;8.20;7.70;6.20
50587;PMS7003;70782;50.514;30.816;2023-07-13T01:21:53;7.30;7.30;5.90
50587;PMS7003;70782;50.514;30.816;2023-07-13T01:22:55;7.30;7.30;6.40
50587;PMS7003;70782;50.514;30.816;2023-07-13T01:23:57;9.20;8.40;6.80
50587;PMS7003;70782;50.514;30.816;2023-07-13T01:24:59;9.50;7.80;6.40
50587;PMS7003;70782;50.514;30.816;2023-07-13T01:26:01;8.30;6.60;5.70
50587;PMS7003;70782;50.514;30.816;2023-07-13T01:27:04;6.73;6.73;5.82
50587;PMS7003;70782;50.514;30.816;2023-07-13T01:28:08;7.40;7.10;5.50
50587;PMS7003;70782;50.514;30.816;2023-07-13T01:29:12;7.80;7.80;6.80
50587;PMS7003;70782;50.514;30.816;2023-07-13T01:30:15;6.40;6.40;5.30
50587;PMS7003;70782;50.514;30.816;2023-07-13T01:31:17;8.60;7.90;6.20
50587;PMS7003;70782;50.514;30.816;2023-07-13T01:32:20;7.00;7.00;5.40
50587;PMS7003;70782;50.514;30.816;2023-07-13T01:33:24;7.80;6.10;5.00
50587;PMS7003;70782;50.514;30.816;2023-07-13T01:34:27;8.20;7.20;6.50
50587;PMS7003;70782;50.514;30.816;2023-07-13T01:35:29;9.80;8.00;6.20
50587;PMS7003;70782;50.514;30.816;2023-07-13T01:36:32;7.30;7.30;6.20
50587;PMS7003;70782;50.514;30.816;2023-07-13T01:37:34;7.20;7.20;6.30
50587;PMS7003;70782;50.514;30.816;2023-07-13T01:38:36;8.90;8.30;6.50
50587;PMS7003;70782;50.514;30.816;2023-07-13T01:39:39;7.40;7.00;5.60
50587;PMS7003;70782;50.514;30.816;2023-07-13T01:40:41;8.00;8.00;5.90
50587;PMS7003;70782;50.514;30.816;2023-07-13T01:41:44;8.20;7.50;6.00
50587;PMS7003;70782;50.514;30.816;2023-07-13T01:42:46;10.30;7.80;6.00
50587;PMS7003;70782;50.514;30.816;2023-07-13T01:43:48;6.80;6.80;5.50
50587;PMS7003;70782;50.514;30.816;2023-07-13T01:44:50;7.40;7.00;5.70
50587;PMS7003;70782;50.514;30.816;2023-07-13T01:45:52;7.30;7.30;6.40
50587;PMS7003;70782;50.514;30.816;2023-07-13T01:46:55;9.00;8.10;6.40
50587;PMS7003;70782;50.514;30.816;2023-07-13T01:47:58;7.20;7.20;5.90
50587;PMS7003;70782;50.514;30.816;2023-07-13T01:49:01;8.30;7.90;5.90
50587;PMS7003;70782;50.514;30.816;2023-07-13T01:50:03;6.70;6.70;5.60
50587;PMS7003;70782;50.514;30.816;2023-07-13T01:51:06;6.70;6.70;5.40
50587;PMS7003;70782;50.514;30.816;2023-07-13T01:52:08;7.50;6.90;5.90
50587;PMS7003;70782;50.514;30.816;2023-07-13T01:53:10;8.10;8.10;7.00
50587;PMS7003;70782;50.514;30.816;2023-07-13T01:54:14;8.10;7.50;5.90
50587;PMS7003;70782;50.514;30.816;2023-07-13T01:55:18;7.70;7.70;6.00
50587;PMS7003;70782;50.514;30.816;2023-07-13T01:56:21;7.60;7.60;5.90
50587;PMS7003;70782;50.514;30.816;2023-07-13T01:57:23;8.50;7.60;5.80
50587;PMS7003;70782;50.514;30.816;2023-07-13T01:59:41;8.80;7.80;6.50
50587;PMS7003;70782;50.514;30.816;2023-07-13T02:00:44;7.90;7.60;6.00
50587;PMS7003;70782;50.514;30.816;2023-07-13T02:01:46;7.80;6.70;5.30
50587;PMS7003;70782;50.514;30.816;2023-07-13T02:02:48;7.00;6.90;6.00
50587;PMS7003;70782;50.514;30.816;2023-07-13T02:03:51;8.20;7.40;6.10
50587;PMS7003;70782;50.514;30.816;2023-07-13T02:04:53;7.80;7.70;5.70
50587;PMS7003;70782;50.514;30.816;2023-07-13T02:05:56;6.70;6.70;5.10
50587;PMS7003;70782;50.514;30.816;2023-07-13T02:06:58;7.80;7.30;6.00
50587;PMS7003;70782;50.514;30.816;2023-07-13T02:08:00;7.50;7.50;5.70
50587;PMS7003;70782;50.514;30.816;2023-07-13T02:09:05;8.40;8.40;6.40
50587;PMS7003;70782;50.514;30.816;2023-07-13T02:10:08;8.82;8.09;7.09
50587;PMS7003;70782;50.514;30.816;2023-07-13T02:11:11;7.80;7.50;6.10
50587;PMS7003;70782;50.514;30.816;2023-07-13T02:12:13;7.80;7.60;6.20
50587;PMS7003;70782;50.514;30.816;2023-07-13T02:13:16;7.70;7.30;6.10
50587;PMS7003;70782;50.514;30.816;2023-07-13T02:14:18;8.30;7.20;6.10
50587;PMS7003;70782;50.514;30.816;2023-07-13T02:15:20;9.10;7.90;6.70
50587;PMS7003;70782;50.514;30.816;2023-07-13T02:16:22;8.80;8.30;6.70
50587;PMS7003;70782;50.514;30.816;2023-07-13T02:17:25;7.70;7.50;5.90
50587;PMS7003;70782;50.514;30.816;2023-07-13T02:18:28;8.50;8.30;6.60
50587;PMS7003;70782;50.514;30.816;2023-07-13T02:19:30;7.80;7.80;5.80
50587;PMS7003;70782;50.514;30.816;2023-07-13T02:20:33;7.80;7.80;6.00
50587;PMS7003;70782;50.514;30.816;2023-07-13T02:21:35;8.70;7.50;6.10
50587;PMS7003;70782;50.514;30.816;2023-07-13T02:22:37;9.50;8.30;7.20
50587;PMS7003;70782;50.514;30.816;2023-07-13T02:23:39;8.10;8.10;6.40
50587;PMS7003;70782;50.514;30.816;2023-07-13T02:24:43;8.40;8.40;6.60
50587;PMS7003;70782;50.514;30.816;2023-07-13T02:25:45;8.70;8.70;7.30
50587;PMS7003;70782;50.514;30.816;2023-07-13T02:26:48;8.60;8.00;6.30
50587;PMS7003;70782;50.514;30.816;2023-07-13T02:27:50;7.30;7.10;6.60
50587;PMS7003;70782;50.514;30.816;2023-07-13T02:28:52;7.67;7.67;6.33
50587;PMS7003;70782;50.514;30.816;2023-07-13T02:29:54;9.30;8.50;6.90
50587;PMS7003;70782;50.514;30.816;2023-07-13T02:31:03;9.40;7.70;6.30
50587;PMS7003;70782;50.514;30.816;2023-07-13T02:32:11;9.40;7.80;6.40
50587;PMS7003;70782;50.514;30.816;2023-07-13T02:33:13;8.00;7.60;6.40
50587;PMS7003;70782;50.514;30.816;2023-07-13T02:34:15;7.90;7.90;6.60
50587;PMS7003;70782;50.514;30.816;2023-07-13T02:35:18;9.00;8.40;7.00
50587;PMS7003;70782;50.514;30.816;2023-07-13T02:36:20;7.10;6.70;5.40
50587;PMS7003;70782;50.514;30.816;2023-07-13T02:37:22;7.30;7.30;6.30
50587;PMS7003;70782;50.514;30.816;2023-07-13T02:38:25;8.00;7.70;6.40
50587;PMS7003;70782;50.514;30.816;2023-07-13T02:39:27;8.20;8.20;7.10
50587;PMS7003;70782;50.514;30.816;2023-07-13T02:40:30;8.00;8.00;6.27
50587;PMS7003;70782;50.514;30.816;2023-07-13T02:41:32;9.30;8.70;7.40
50587;PMS7003;70782;50.514;30.816;2023-07-13T02:42:34;8.20;8.20;6.30
50587;PMS7003;70782;50.514;30.816;2023-07-13T02:43:39;6.50;6.50;5.80
50587;PMS7003;70782;50.514;30.816;2023-07-13T02:44:43;10.00;9.30;7.20
50587;PMS7003;70782;50.514;30.816;2023-07-13T02:45:46;8.60;7.70;6.30
50587;PMS7003;70782;50.514;30.816;2023-07-13T02:46:48;7.90;7.90;6.10
50587;PMS7003;70782;50.514;30.816;2023-07-13T02:47:50;9.10;8.40;5.60
50587;PMS7003;70782;50.514;30.816;2023-07-13T02:48:53;7.80;7.70;6.70
50587;PMS7003;70782;50.514;30.816;2023-07-13T02:49:55;10.90;10.40;8.00
50587;PMS7003;70782;50.514;30.816;2023-07-13T02:50:57;11.60;11.30;9.30
50587;PMS7003;70782;50.514;30.816;2023-07-13T02:51:59;13.80;13.60;10.70
50587;PMS7003;70782;50.514;30.816;2023-07-13T02:53:02;13.00;13.00;10.10
50587;PMS7003;70782;50.514;30.816;2023-07-13T02:54:04;12.90;11.60;9.20
50587;PMS7003;70782;50.514;30.816;2023-07-13T02:55:07;10.40;10.40;9.00
50587;PMS7003;70782;50.514;30.816;2023-07-13T02:56:10;9.50;9.30;7.90
50587;PMS7003;70782;50.514;30.816;2023-07-13T02:57:13;12.10;9.80;9.00
50587;PMS7003;70782;50.514;30.816;2023-07-13T02:58:16;13.20;11.90;10.50
50587;PMS7003;70782;50.514;30.816;2023-07-13T02:59:18;11.90;10.90;9.40
50587;PMS7003;70782;50.514;30.816;2023-07-13T03:00:20;10.40;10.40;8.40
50587;PMS7003;70782;50.514;30.816;2023-07-13T03:01:25;12.10;11.00;9.50
50587;PMS7003;70782;50.514;30.816;2023-07-13T03:02:28;10.36;9.27;6.82
50587;PMS7003;70782;50.514;30.816;2023-07-13T03:03:30;11.00;10.40;8.10
50587;PMS7003;70782;50.514;30.816;2023-07-13T03:04:34;11.50;10.60;8.60
50587;PMS7003;70782;50.514;30.816;2023-07-13T03:05:45;11.60;11.10;9.00
50587;PMS7003;70782;50.514;30.816;2023-07-13T03:06:48;10.82;9.73;8.09
50587;PMS7003;70782;50.514;30.816;2023-07-13T03:07:50;11.30;10.90;8.80
50587;PMS7003;70782;50.514;30.816;2023-07-13T03:08:53;12.00;11.40;9.00
50587;PMS7003;70782;50.514;30.816;2023-07-13T03:09:56;12.00;12.00;9.30
50587;PMS7003;70782;50.514;30.816;2023-07-13T03:11:06;12.60;12.50;9.00
50587;PMS7003;70782;50.514;30.816;2023-07-13T03:12:09;11.40;9.80;7.70
50587;PMS7003;70782;50.514;30.816;2023-07-13T03:13:11;10.80;10.40;7.90
50587;PMS7003;70782;50.514;30.816;2023-07-13T03:14:14;10.40;10.10;8.20
50587;PMS7003;70782;50.514;30.816;2023-07-13T03:15:16;12.30;11.10;8.20
50587;PMS7003;70782;50.514;30.816;2023-07-13T03:16:20;11.30;10.70;9.70
50587;PMS7003;70782;50.514;30.816;2023-07-13T03:17:24;12.70;12.10;9.60
50587;PMS7003;70782;50.514;30.816;2023-07-13T03:18:27;10.20;10.20;8.80
50587;PMS7003;70782;50.514;30.816;2023-07-13T03:19:31;9.90;9.90;8.90
50587;PMS7003;70782;50.514;30.816;2023-07-13T03:20:34;9.70;9.60;8.30
50587;PMS7003;70782;50.514;30.816;2023-07-13T03:21:36;8.40;7.60;6.40
50587;PMS7003;70782;50.514;30.816;2023-07-13T03:22:38;10.50;10.10;8.00
50587;PMS7003;70782;50.514;30.816;2023-07-13T03:23:41;10.70;10.60;8.10
50587;PMS7003;70782;50.514;30.816;2023-07-13T03:24:44;12.30;11.90;9.70
50587;PMS7003;70782;50.514;30.816;2023-07-13T03:25:47;12.18;12.18;9.27
50587;PMS7003;70782;50.514;30.816;2023-07-13T03:26:49;10.70;9.70;7.60
50587;PMS7003;70782;50.514;30.816;2023-07-13T03:27:52;10.30;9.60;7.90
50587;PMS7003;70782;50.514;30.816;2023-07-13T03:28:55;11.18;10.09;8.27
50587;PMS7003;70782;50.514;30.816;2023-07-13T03:29:58;10.64;10.64;8.18
50587;PMS7003;70782;50.514;30.816;2023-07-13T03:32:11;14.50;13.60;11.00
50587;PMS7003;70782;50.514;30.816;2023-07-13T03:33:14;15.90;15.30;11.20
50587;PMS7003;70782;50.514;30.816;2023-07-13T03:34:16;16.40;15.40;11.70
50587;PMS7003;70782;50.514;30.816;2023-07-13T03:35:18;13.80;12.40;9.40
50587;PMS7003;70782;50.514;30.816;2023-07-13T03:37:51;12.90;11.90;9.30
50587;PMS7003;70782;50.514;30.816;2023-07-13T03:38:55;11.20;10.40;8.20
50587;PMS7003;70782;50.514;30.816;2023-07-13T03:40:01;11.60;10.70;8.60
50587;PMS7003;70782;50.514;30.816;2023-07-13T03:41:04;12.00;10.90;8.20
50587;PMS7003;70782;50.514;30.816;2023-07-13T03:42:06;11.90;10.80;8.30
50587;PMS7003;70782;50.514;30.816;2023-07-13T03:43:09;10.00;8.70;7.80
50587;PMS7003;70782;50.514;30.816;2023-07-13T03:44:11;9.70;9.70;7.80
50587;PMS7003;70782;50.514;30.816;2023-07-13T03:45:13;10.80;10.80;7.20
50587;PMS7003;70782;50.514;30.816;2023-07-13T03:46:16;8.90;8.80;7.30
50587;PMS7003;70782;50.514;30.816;2023-07-13T03:47:19;10.90;10.20;7.60
50587;PMS7003;70782;50.514;30.816;2023-07-13T03:48:21;11.80;10.70;7.20
50587;PMS7003;70782;50.514;30.816;2023-07-13T03:49:25;10.60;9.00;7.60
50587;PMS7003;70782;50.514;30.816;2023-07-13T03:50:28;9.50;9.50;8.40
50587;PMS7003;70782;50.514;30.816;2023-07-13T03:51:31;11.60;11.60;7.80
50587;PMS7003;70782;50.514;30.816;2023-07-13T03:52:34;12.70;11.90;9.30
50587;PMS7003;70782;50.514;30.816;2023-07-13T03:53:37;11.10;9.90;5.80
50587;PMS7003;70782;50.514;30.816;2023-07-13T03:54:40;12.30;12.10;9.70
50587;PMS7003;70782;50.514;30.816;2023-07-13T03:55:42;13.40;11.60;9.10
50587;PMS7003;70782;50.514;30.816;2023-07-13T03:56:45;12.60;12.30;10.30
50587;PMS7003;70782;50.514;30.816;2023-07-13T03:57:47;12.10;10.80;9.00
50587;PMS7003;70782;50.514;30.816;2023-07-13T03:58:50;13.10;11.10;9.00
50587;PMS7003;70782;50.514;30.816;2023-07-13T03:59:54;11.00;10.60;8.60
50587;PMS7003;70782;50.514;30.816;2023-07-13T04:00:57;11.40;11.40;8.10
50587;PMS7003;70782;50.514;30.816;2023-07-13T04:02:00;10.70;9.90;7.40
50587;PMS7003;70782;50.514;30.816;2023-07-13T04:03:04;10.80;10.20;8.00
50587;PMS7003;70782;50.514;30.816;2023-07-13T04:04:06;12.10;11.20;9.10
50587;PMS7003;70782;50.514;30.816;2023-07-13T04:05:09;10.50;10.50;8.50
50587;PMS7003;70782;50.514;30.816;2023-07-13T04:06:17;11.27;11.09;8.64
50587;PMS7003;70782;50.514;30.816;2023-07-13T04:07:23;11.40;10.40;8.30
50587;PMS7003;70782;50.514;30.816;2023-07-13T04:08:29;12.00;12.00;9.40
50587;PMS7003;70782;50.514;30.816;2023-07-13T04:09:35;11.20;11.20;8.70
50587;PMS7003;70782;50.514;30.816;2023-07-13T04:10:38;10.30;10.30;7.90
50587;PMS7003;70782;50.514;30.816;2023-07-13T04:11:40;11.60;11.50;9.50
50587;PMS7003;70782;50.514;30.816;2023-07-13T04:12:42;11.80;11.30;9.10
50587;PMS7003;70782;50.514;30.816;2023-07-13T04:13:45;11.70;11.30;8.60
50587;PMS7003;70782;50.514;30.816;2023-07-13T04:14:48;11.90;10.40;7.60
50587;PMS7003;70782;50.514;30.816;2023-07-13T04:15:50;11.70;11.20;8.00
50587;PMS7003;70782;50.514;30.816;2023-07-13T04:16:54;16.20;14.70;12.80
50587;PMS7003;70782;50.514;30.816;2023-07-13T04:17:56;14.80;13.50;9.80
50587;PMS7003;70782;50.514;30.816;2023-07-13T04:18:59;11.40;11.00;9.30
50587;PMS7003;70782;50.514;30.816;2023-07-13T04:20:01;10.60;9.70;7.70
50587;PMS7003;70782;50.514;30.816;2023-07-13T04:21:03;10.50;10.00;8.80
50587;PMS7003;70782;50.514;30.816;2023-07-13T04:22:05;10.50;9.20;7.70
50587;PMS7003;70782;50.514;30.816;2023-07-13T04:23:07;12.40;11.30;8.50
50587;PMS7003;70782;50.514;30.816;2023-07-13T04:24:10;9.50;9.50;7.50
50587;PMS7003;70782;50.514;30.816;2023-07-13T04:25:12;11.80;11.70;8.80
50587;PMS7003;70782;50.514;30.816;2023-07-13T04:26:14;13.70;11.80;9.10
50587;PMS7003;70782;50.514;30.816;2023-07-13T04:27:16;10.60;9.40;8.40
50587;PMS7003;70782;50.514;30.816;2023-07-13T04:28:22;9.70;9.70;7.70
50587;PMS7003;70782;50.514;30.816;2023-07-13T04:29:23;12.60;11.80;9.30
50587;PMS7003;70782;50.514;30.816;2023-07-13T04:30:26;11.00;10.10;9.20
50587;PMS7003;70782;50.514;30.816;2023-07-13T04:31:28;17.80;17.60;13.60
50587;PMS7003;70782;50.514;30.816;2023-07-13T04:32:30;18.70;17.50;14.90
50587;PMS7003;70782;50.514;30.816;2023-07-13T04:33:33;13.60;12.30;10.00
50587;PMS7003;70782;50.514;30.816;2023-07-13T04:34:35;11.60;11.00;8.80
50587;PMS7003;70782;50.514;30.816;2023-07-13T04:35:37;12.80;12.80;10.40
50587;PMS7003;70782;50.514;30.816;2023-07-13T04:36:39;13.70;12.70;10.60
50587;PMS7003;70782;50.514;30.816;2023-07-13T04:37:42;13.50;12.10;9.40
50587;PMS7003;70782;50.514;30.816;2023-07-13T04:38:44;11.20;11.20;9.30
50587;PMS7003;70782;50.514;30.816;2023-07-13T04:39:46;14.40;11.80;9.60
50587;PMS7003;70782;50.514;30.816;2023-07-13T04:40:48;10.90;10.60;8.60
50587;PMS7003;70782;50.514;30.816;2023-07-13T04:41:51;11.20;11.20;7.60
50587;PMS7003;70782;50.514;30.816;2023-07-13T04:42:53;10.90;10.60;8.00
50587;PMS7003;70782;50.514;30.816;2023-07-13T04:43:55;11.90;10.70;9.00
50587;PMS7003;70782;50.514;30.816;2023-07-13T04:44:58;11.40;10.60;8.00
50587;PMS7003;70782;50.514;30.816;2023-07-13T04:46:07;11.00;10.90;8.80
50587;PMS7003;70782;50.514;30.816;2023-07-13T04:47:12;9.55;9.00;7.45
50587;PMS7003;70782;50.514;30.816;2023-07-13T04:48:14;12.60;11.60;8.90
50587;PMS7003;70782;50.514;30.816;2023-07-13T04:49:16;11.40;10.40;8.10
50587;PMS7003;70782;50.514;30.816;2023-07-13T04:50:19;10.70;10.50;7.90
50587;PMS7003;70782;50.514;30.816;2023-07-13T04:51:21;14.00;11.80;8.10
50587;PMS7003;70782;50.514;30.816;2023-07-13T04:52:24;10.40;9.50;7.50
50587;PMS7003;70782;50.514;30.816;2023-07-13T04:53:27;14.55;13.00;8.91
50587;PMS7003;70782;50.514;30.816;2023-07-13T04:54:30;14.80;13.70;11.00
50587;PMS7003;70782;50.514;30.816;2023-07-13T04:55:32;12.90;12.30;9.60
50587;PMS7003;70782;50.514;30.816;2023-07-13T04:56:34;15.10;13.60;10.90
50587;PMS7003;70782;50.514;30.816;2023-07-13T04:57:37;13.20;12.20;9.70
50587;PMS7003;70782;50.514;30.816;2023-07-13T04:58:39;12.20;10.60;8.70
50587;PMS7003;70782;50.514;30.816;2023-07-13T04:59:41;9.50;8.50;7.10
50587;PMS7003;70782;50.514;30.816;2023-07-13T05:00:43;12.10;11.80;9.80
50587;PMS7003;70782;50.514;30.816;2023-07-13T05:01:46;13.80;13.30;10.80
50587;PMS7003;70782;50.514;30.816;2023-07-13T05:02:48;11.60;11.40;10.00
50587;PMS7003;70782;50.514;30.816;2023-07-13T05:03:50;11.70;10.70;8.40
50587;PMS7003;70782;50.514;30.816;2023-07-13T05:04:53;11.30;9.70;7.50
50587;PMS7003;70782;50.514;30.816;2023-07-13T05:07:06;11.00;10.40;7.90
50587;PMS7003;70782;50.514;30.816;2023-07-13T05:08:08;11.00;11.00;8.60
50587;PMS7003;70782;50.514;30.816;2023-07-13T05:09:11;9.60;9.30;7.50
50587;PMS7003;70782;50.514;30.816;2023-07-13T05:10:13;10.40;10.40;8.40
50587;PMS7003;70782;50.514;30.816;2023-07-13T05:11:16;10.60;10.60;7.70
50587;PMS7003;70782;50.514;30.816;2023-07-13T05:12:19;9.70;9.70;8.10
50587;PMS7003;70782;50.514;30.816;2023-07-13T05:13:21;8.80;8.80;7.10
50587;PMS7003;70782;50.514;30.816;2023-07-13T05:14:24;9.55;8.36;6.45
50587;PMS7003;70782;50.514;30.816;2023-07-13T05:15:26;9.40;9.40;7.30
50587;PMS7003;70782;50.514;30.816;2023-07-13T05:16:29;8.90;8.40;7.20
50587;PMS7003;70782;50.514;30.816;2023-07-13T05:17:32;10.80;9.80;7.80
50587;PMS7003;70782;50.514;30.816;2023-07-13T05:18:34;11.30;9.80;8.30
50587;PMS7003;70782;50.514;30.816;2023-07-13T05:19:37;11.60;11.60;10.20
50587;PMS7003;70782;50.514;30.816;2023-07-13T05:20:39;11.80;10.50;8.70
50587;PMS7003;70782;50.514;30.816;2023-07-13T05:21:42;11.20;11.10;8.50
50587;PMS7003;70782;50.514;30.816;2023-07-13T05:22:44;8.60;8.60;6.80
50587;PMS7003;70782;50.514;30.816;2023-07-13T05:23:47;13.30;11.80;9.20
50587;PMS7003;70782;50.514;30.816;2023-07-13T05:24:49;10.40;10.40;8.30
50587;PMS7003;70782;50.514;30.816;2023-07-13T05:25:51;12.40;10.70;8.00
50587;PMS7003;70782;50.514;30.816;2023-07-13T05:26:54;12.30;11.30;8.70
50587;PMS7003;70782;50.514;30.816;2023-07-13T05:27:56;14.40;12.70;10.60
50587;PMS7003;70782;50.514;30.816;2023-07-13T05:28:58;12.20;12.20;9.70
50587;PMS7003;70782;50.514;30.816;2023-07-13T05:30:01;9.40;9.40;8.00
50587;PMS7003;70782;50.514;30.816;2023-07-13T05:31:06;8.60;8.60;7.40
50587;PMS7003;70782;50.514;30.816;2023-07-13T05:32:09;9.10;9.10;7.50
50587;PMS7003;70782;50.514;30.816;2023-07-13T05:33:12;9.20;9.10;7.40
50587;PMS7003;70782;50.514;30.816;2023-07-13T05:34:14;8.50;7.70;6.90
50587;PMS7003;70782;50.514;30.816;2023-07-13T05:35:17;9.50;9.20;6.90
50587;PMS7003;70782;50.514;30.816;2023-07-13T05:36:19;10.00;8.90;7.20
50587;PMS7003;70782;50.514;30.816;2023-07-13T05:37:21;11.40;11.00;8.50
50587;PMS7003;70782;50.514;30.816;2023-07-13T05:38:23;9.00;7.60;6.50
50587;PMS7003;70782;50.514;30.816;2023-07-13T05:39:26;9.30;9.30;7.70
50587;PMS7003;70782;50.514;30.816;2023-07-13T05:40:28;10.00;10.00;8.50
50587;PMS7003;70782;50.514;30.816;2023-07-13T05:41:30;16.30;14.30;10.50
50587;PMS7003;70782;50.514;30.816;2023-07-13T05:42:32;13.30;12.30;9.50
50587;PMS7003;70782;50.514;30.816;2023-07-13T05:43:35;12.30;10.50;8.50
50587;PMS7003;70782;50.514;30.816;2023-07-13T05:44:37;10.70;10.70;8.80
50587;PMS7003;70782;50.514;30.816;2023-07-13T05:45:39;10.60;10.60;7.90
50587;PMS7003;70782;50.514;30.816;2023-07-13T05:46:42;12.50;10.20;8.00
50587;PMS7003;70782;50.514;30.816;2023-07-13T05:47:44;7.60;7.60;5.90
50587;PMS7003;70782;50.514;30.816;2023-07-13T05:48:47;9.60;9.60;7.60
50587;PMS7003;70782;50.514;30.816;2023-07-13T05:49:49;8.80;8.30;6.80
50587;PMS7003;70782;50.514;30.816;2023-07-13T05:50:52;10.00;9.50;7.50
50587;PMS7003;70782;50.514;30.816;2023-07-13T05:51:54;10.11;9.56;8.33
50587;PMS7003;70782;50.514;30.816;2023-07-13T05:52:56;10.00;9.60;7.60
50587;PMS7003;70782;50.514;30.816;2023-07-13T05:53:58;9.10;9.10;7.50
50587;PMS7003;70782;50.514;30.816;2023-07-13T05:55:00;10.50;9.80;7.40
50587;PMS7003;70782;50.514;30.816;2023-07-13T05:56:03;13.10;12.50;10.70
50587;PMS7003;70782;50.514;30.816;2023-07-13T05:57:05;11.80;11.30;9.00
50587;PMS7003;70782;50.514;30.816;2023-07-13T05:58:07;10.80;8.50;6.70
50587;PMS7003;70782;50.514;30.816;2023-07-13T05:59:10;10.40;9.40;7.60
50587;PMS7003;70782;50.514;30.816;2023-07-13T06:00:13;8.40;8.40;7.20
50587;PMS7003;70782;50.514;30.816;2023-07-13T06:01:16;8.60;8.60;7.40
50587;PMS7003;70782;50.514;30.816;2023-07-13T06:02:19;9.91;9.36;7.64
50587;PMS7003;70782;50.514;30.816;2023-07-13T06:03:21;10.80;10.10;7.70
50587;PMS7003;70782;50.514;30.816;2023-07-13T06:04:23;10.60;10.60;8.00
50587;PMS7003;70782;50.514;30.816;2023-07-13T06:05:26;9.00;9.00;7.70
50587;PMS7003;70782;50.514;30.816;2023-07-13T06:06:28;8.40;7.70;6.60
50587;PMS7003;70782;50.514;30.816;2023-07-13T06:07:31;10.40;9.30;7.30